createdAt,value
2023-05-07T00:01:29.467Z,14.10
2023-05-07T00:03:56.350Z,14.00
2023-05-07T00:06:23.720Z,14.00
2023-05-07T00:08:50.490Z,14.00
2023-05-07T00:11:17.193Z,13.90
2023-05-07T00:13:43.926Z,13.90
2023-05-07T00:16:10.619Z,13.90
2023-05-07T00:18:37.453Z,13.70
2023-05-07T00:21:04.354Z,13.70
2023-05-07T00:23:31.096Z,13.80
2023-05-07T00:25:57.875Z,13.80
2023-05-07T00:28:24.623Z,13.80
2023-05-07T00:30:51.319Z,13.80
2023-05-07T00:33:18.132Z,13.80
2023-05-07T00:35:44.899Z,13.80
2023-05-07T00:38:11.676Z,13.80
2023-05-07T00:40:38.636Z,13.80
2023-05-07T00:43:05.375Z,13.80
2023-05-07T00:45:32.193Z,13.70
2023-05-07T00:48:01.566Z,13.60
2023-05-07T00:50:29.460Z,13.60
2023-05-07T00:52:56.381Z,13.50
2023-05-07T00:55:24.546Z,13.50
2023-05-07T00:57:52.466Z,13.40
2023-05-07T01:00:19.742Z,13.40
2023-05-07T01:02:47.914Z,13.40
2023-05-07T01:05:17.596Z,13.40
2023-05-07T01:07:45.527Z,13.30
2023-05-07T01:10:13.389Z,13.30
2023-05-07T01:12:41.524Z,13.20
2023-05-07T01:15:10.043Z,13.20
2023-05-07T01:17:37.827Z,13.10
2023-05-07T01:20:08.352Z,13.10
2023-05-07T01:22:37.701Z,13.00
2023-05-07T01:25:05.962Z,13.00
2023-05-07T01:27:34.564Z,12.90
2023-05-07T01:30:01.948Z,12.90
2023-05-07T01:32:50.704Z,12.80
2023-05-07T01:35:21.951Z,12.70
2023-05-07T01:37:49.409Z,12.70
2023-05-07T01:40:16.412Z,12.70
2023-05-07T01:42:44.444Z,12.60
2023-05-07T01:45:11.584Z,12.70
2023-05-07T01:47:39.717Z,12.60
2023-05-07T01:50:11.101Z,12.60
2023-05-07T01:52:39.579Z,12.60
2023-05-07T01:55:07.338Z,12.60
2023-05-07T01:57:34.329Z,12.60
2023-05-07T02:00:01.080Z,12.60
2023-05-07T02:02:27.993Z,12.50
2023-05-07T02:04:58.089Z,12.50
2023-05-07T02:07:25.551Z,12.50
2023-05-07T02:09:53.202Z,12.50
2023-05-07T02:12:19.968Z,12.40
2023-05-07T02:14:47.132Z,12.40
2023-05-07T02:17:14.496Z,12.30
2023-05-07T02:19:41.209Z,12.30
2023-05-07T02:22:08.748Z,12.30
2023-05-07T02:24:35.791Z,12.30
2023-05-07T02:27:03.456Z,12.30
2023-05-07T02:29:30.865Z,12.30
2023-05-07T02:31:57.693Z,12.30
2023-05-07T02:34:24.444Z,12.20
2023-05-07T02:36:51.250Z,12.20
2023-05-07T02:39:21.586Z,12.10
2023-05-07T02:41:48.344Z,12.10
2023-05-07T02:44:15.302Z,12.10
2023-05-07T02:46:42.294Z,12.10
2023-05-07T02:49:11.916Z,12.10
2023-05-07T02:51:38.758Z,12.10
2023-05-07T02:54:10.818Z,12.10
2023-05-07T02:56:37.830Z,12.00
2023-05-07T02:59:04.521Z,11.90
2023-05-07T03:01:34.507Z,11.90
2023-05-07T03:04:06.708Z,11.90
2023-05-07T03:06:33.451Z,11.80
2023-05-07T03:09:00.174Z,11.80
2023-05-07T03:11:26.995Z,11.80
2023-05-07T03:13:53.708Z,11.70
2023-05-07T03:16:21.856Z,11.70
2023-05-07T03:18:48.765Z,11.70
2023-05-07T03:21:15.648Z,11.70
2023-05-07T03:23:42.425Z,11.60
2023-05-07T03:26:09.203Z,11.70
2023-05-07T03:28:36.194Z,11.60
2023-05-07T03:31:06.140Z,11.60
2023-05-07T03:33:39.787Z,11.60
2023-05-07T03:36:06.701Z,11.60
2023-05-07T03:38:33.496Z,11.60
2023-05-07T03:41:00.485Z,11.60
2023-05-07T03:43:27.364Z,11.60
2023-05-07T03:46:01.545Z,11.50
2023-05-07T03:48:29.389Z,11.50
2023-05-07T03:51:01.464Z,11.50
2023-05-07T03:53:32.340Z,11.50
2023-05-07T03:55:59.103Z,11.50
2023-05-07T03:58:25.953Z,11.40
2023-05-07T04:00:54.706Z,11.40
2023-05-07T04:03:27.933Z,11.50
2023-05-07T04:05:57.983Z,11.40
2023-05-07T04:08:24.822Z,11.50
2023-05-07T04:10:58.032Z,11.50
2023-05-07T04:13:26.847Z,11.50
2023-05-07T04:15:56.009Z,11.50
2023-05-07T04:18:22.990Z,11.50
2023-05-07T04:20:50.909Z,11.50
2023-05-07T04:23:17.701Z,11.50
2023-05-07T04:25:44.733Z,11.60
2023-05-07T04:28:20.417Z,11.60
2023-05-07T04:30:47.385Z,11.70
2023-05-07T04:33:17.843Z,11.70
2023-05-07T04:35:45.223Z,11.80
2023-05-07T04:38:12.012Z,11.80
2023-05-07T04:40:39.879Z,11.80
2023-05-07T04:43:10.087Z,11.90
2023-05-07T04:45:43.817Z,12.00
2023-05-07T04:48:11.046Z,12.10
2023-05-07T04:50:40.594Z,12.20
2023-05-07T04:53:08.010Z,12.20
2023-05-07T04:55:35.014Z,12.30
2023-05-07T04:58:02.971Z,12.50
2023-05-07T05:00:32.644Z,12.60
2023-05-07T05:03:00.608Z,12.70
2023-05-07T05:05:28.033Z,12.70
2023-05-07T05:07:55.529Z,12.70
2023-05-07T05:10:24.615Z,12.70
2023-05-07T05:12:52.210Z,12.90
2023-05-07T05:15:20.308Z,12.90
2023-05-07T05:17:47.160Z,13.00
2023-05-07T05:20:13.925Z,13.00
2023-05-07T05:22:43.049Z,13.00
2023-05-07T05:25:10.737Z,13.00
2023-05-07T05:27:37.531Z,13.10
2023-05-07T05:30:06.639Z,13.10
2023-05-07T05:32:34.733Z,13.20
2023-05-07T05:35:01.987Z,13.20
2023-05-07T05:37:31.145Z,13.30
2023-05-07T05:39:58.907Z,13.40
2023-05-07T05:42:27.204Z,13.50
2023-05-07T05:44:55.362Z,13.60
2023-05-07T05:47:23.641Z,13.70
2023-05-07T05:49:51.620Z,14.00
2023-05-07T05:52:18.526Z,14.20
2023-05-07T05:54:46.352Z,14.20
2023-05-07T05:57:13.361Z,14.40
2023-05-07T05:59:40.206Z,14.60
2023-05-07T06:02:07.597Z,14.80
2023-05-07T06:04:34.644Z,15.00
2023-05-07T06:07:01.487Z,15.10
2023-05-07T06:09:28.294Z,15.20
2023-05-07T06:11:55.446Z,15.20
2023-05-07T06:14:22.311Z,15.10
2023-05-07T06:16:49.342Z,15.10
2023-05-07T06:19:19.020Z,15.10
2023-05-07T06:21:45.828Z,15.20
2023-05-07T06:24:12.692Z,15.30
2023-05-07T06:26:40.028Z,15.50
2023-05-07T06:29:07.292Z,15.80
2023-05-07T06:31:34.431Z,15.90
2023-05-07T06:34:08.584Z,15.70
2023-05-07T06:36:38.100Z,15.70
2023-05-07T06:39:13.914Z,15.70
2023-05-07T06:41:40.593Z,15.80
2023-05-07T06:44:16.146Z,15.90
2023-05-07T06:46:47.306Z,16.00
2023-05-07T06:49:14.873Z,16.10
2023-05-07T06:51:41.791Z,16.30
2023-05-07T06:54:08.518Z,16.30
2023-05-07T06:56:37.925Z,16.40
2023-05-07T06:59:07.541Z,16.60
2023-05-07T07:01:38.531Z,16.80
2023-05-07T07:04:06.030Z,16.90
2023-05-07T07:06:33.870Z,17.00
2023-05-07T07:09:02.470Z,17.10
2023-05-07T07:11:30.638Z,17.10
2023-05-07T07:13:57.686Z,17.10
2023-05-07T07:16:25.912Z,17.10
2023-05-07T07:18:52.776Z,17.10
2023-05-07T07:21:20.877Z,17.30
2023-05-07T07:23:47.770Z,17.00
2023-05-07T07:26:15.165Z,17.20
2023-05-07T07:28:48.507Z,17.20
2023-05-07T07:31:18.655Z,17.30
2023-05-07T07:33:45.817Z,17.40
2023-05-07T07:36:12.626Z,17.60
2023-05-07T07:38:39.939Z,17.80
2023-05-07T07:41:09.451Z,17.60
2023-05-07T07:43:36.923Z,17.60
2023-05-07T07:46:04.566Z,17.60
2023-05-07T07:48:32.162Z,17.70
2023-05-07T07:50:59.674Z,17.90
2023-05-07T07:53:26.754Z,18.20
2023-05-07T07:55:57.984Z,18.30
2023-05-07T07:58:28.024Z,18.70
2023-05-07T08:00:56.920Z,19.10
2023-05-07T08:03:24.708Z,19.20
2023-05-07T08:05:57.012Z,19.10
2023-05-07T08:08:24.208Z,18.80
2023-05-07T08:10:52.256Z,18.90
2023-05-07T08:13:26.326Z,19.30
2023-05-07T08:15:53.505Z,19.20
2023-05-07T08:18:20.732Z,19.20
2023-05-07T08:20:48.406Z,18.90
2023-05-07T08:23:19.053Z,19.10
2023-05-07T08:25:46.629Z,18.90
2023-05-07T08:28:14.169Z,18.90
2023-05-07T08:30:42.289Z,18.90
2023-05-07T08:33:10.538Z,18.60
2023-05-07T08:35:37.285Z,19.00
2023-05-07T08:38:06.005Z,19.40
2023-05-07T08:40:39.905Z,19.40
2023-05-07T08:43:16.096Z,19.60
2023-05-07T08:45:46.608Z,19.60
2023-05-07T08:48:18.301Z,19.80
2023-05-07T08:50:52.089Z,20.10
2023-05-07T08:53:19.315Z,20.40
2023-05-07T08:55:47.821Z,20.40
2023-05-07T08:58:14.925Z,20.50
2023-05-07T09:00:43.185Z,20.30
2023-05-07T09:03:13.449Z,20.30
2023-05-07T09:05:41.879Z,20.40
2023-05-07T09:08:09.414Z,20.80
2023-05-07T09:10:37.999Z,21.20
2023-05-07T09:13:05.611Z,21.50
2023-05-07T09:15:32.595Z,21.20
2023-05-07T09:18:02.616Z,21.30
2023-05-07T09:20:33.360Z,21.80
2023-05-07T09:23:01.060Z,21.90
2023-05-07T09:25:31.365Z,22.00
2023-05-07T09:28:01.251Z,21.90
2023-05-07T09:30:36.118Z,21.70
2023-05-07T09:33:05.237Z,21.00
2023-05-07T09:35:34.480Z,21.40
2023-05-07T09:38:07.311Z,21.10
2023-05-07T09:40:36.702Z,21.00
2023-05-07T09:43:13.641Z,21.10
2023-05-07T09:45:47.473Z,21.40
2023-05-07T09:48:19.278Z,21.60
2023-05-07T09:50:52.461Z,21.40
2023-05-07T09:53:23.566Z,21.50
2023-05-07T09:55:52.227Z,21.40
2023-05-07T09:58:21.150Z,21.40
2023-05-07T10:00:49.000Z,21.30
2023-05-07T10:03:17.064Z,22.10
2023-05-07T10:05:55.283Z,21.80
2023-05-07T10:08:22.824Z,21.70
2023-05-07T10:10:52.841Z,22.10
2023-05-07T10:13:23.946Z,22.50
2023-05-07T10:15:54.499Z,21.70
2023-05-07T10:18:30.643Z,21.90
2023-05-07T10:21:08.003Z,22.00
2023-05-07T10:23:35.712Z,21.90
2023-05-07T10:26:05.542Z,21.30
2023-05-07T10:28:38.212Z,21.50
2023-05-07T10:31:16.935Z,21.80
2023-05-07T10:33:49.670Z,21.90
2023-05-07T10:36:18.054Z,22.20
2023-05-07T10:38:44.962Z,22.20
2023-05-07T10:41:12.707Z,22.40
2023-05-07T10:43:44.499Z,22.40
2023-05-07T10:46:21.404Z,22.50
2023-05-07T10:49:04.365Z,22.00
2023-05-07T10:52:18.345Z,22.60
2023-05-07T10:55:20.923Z,22.90
2023-05-07T10:57:54.650Z,22.70
2023-05-07T11:03:02.937Z,22.40
2023-05-07T11:05:38.503Z,22.80
2023-05-07T11:08:23.371Z,22.70
2023-05-07T11:10:59.204Z,22.30
2023-05-07T11:13:48.748Z,22.30
2023-05-07T11:16:47.887Z,22.10
2023-05-07T11:20:02.629Z,22.10
2023-05-07T11:22:40.898Z,21.90
2023-05-07T11:25:30.811Z,22.10
2023-05-07T11:28:11.267Z,21.90
2023-05-07T11:30:44.148Z,21.90
2023-05-07T11:33:17.985Z,21.70
2023-05-07T11:35:46.438Z,21.30
2023-05-07T11:38:14.874Z,21.30
2023-05-07T11:40:57.340Z,21.50
2023-05-07T11:43:24.093Z,21.90
2023-05-07T11:45:51.383Z,21.80
2023-05-07T11:48:18.214Z,22.00
2023-05-07T11:50:52.800Z,22.00
2023-05-07T11:53:20.959Z,21.60
2023-05-07T11:55:47.882Z,21.40
2023-05-07T11:58:22.232Z,21.30
2023-05-07T12:00:55.615Z,21.00
2023-05-07T12:03:22.372Z,20.80
2023-05-07T12:05:49.490Z,20.90
2023-05-07T12:08:20.534Z,20.80
2023-05-07T12:10:49.277Z,20.50
2023-05-07T12:13:17.490Z,20.00
2023-05-07T12:15:44.920Z,20.00
2023-05-07T12:18:13.589Z,19.80
2023-05-07T12:20:40.798Z,19.80
2023-05-07T12:23:07.741Z,19.70
2023-05-07T12:25:39.005Z,19.70
2023-05-07T12:28:06.868Z,19.70
2023-05-07T12:30:38.498Z,19.70
2023-05-07T12:33:05.492Z,19.90
2023-05-07T12:35:37.115Z,19.90
2023-05-07T12:38:08.513Z,20.00
2023-05-07T12:40:40.720Z,20.10
2023-05-07T12:43:07.800Z,20.50
2023-05-07T12:45:42.309Z,20.80
2023-05-07T12:48:11.458Z,21.00
2023-05-07T12:50:38.351Z,21.10
2023-05-07T12:53:12.167Z,21.10
2023-05-07T12:55:46.916Z,21.30
2023-05-07T12:58:20.605Z,21.30
2023-05-07T13:00:49.981Z,21.40
2023-05-07T13:03:33.275Z,21.30
2023-05-07T13:06:11.223Z,21.20
2023-05-07T13:08:41.520Z,20.70
2023-05-07T13:11:09.780Z,20.40
2023-05-07T13:13:38.206Z,20.40
2023-05-07T13:16:06.148Z,20.60
2023-05-07T13:18:34.593Z,20.60
2023-05-07T13:21:01.998Z,20.40
2023-05-07T13:23:29.435Z,20.10
2023-05-07T13:25:56.917Z,19.70
2023-05-07T13:28:24.878Z,19.50
2023-05-07T13:30:52.864Z,19.40
2023-05-07T13:33:19.955Z,19.40
2023-05-07T13:35:46.829Z,19.20
2023-05-07T13:38:13.524Z,19.20
2023-05-07T13:40:40.253Z,19.10
2023-05-07T13:43:07.156Z,19.10
2023-05-07T13:45:33.950Z,19.00
2023-05-07T13:48:01.493Z,18.70
2023-05-07T13:50:30.059Z,18.60
2023-05-07T13:52:57.009Z,18.40
2023-05-07T13:55:25.351Z,18.40
2023-05-07T13:57:59.898Z,18.30
2023-05-07T14:00:28.501Z,18.30
2023-05-07T14:02:56.121Z,18.30
2023-05-07T14:05:27.643Z,17.80
2023-05-07T14:07:55.031Z,17.80
2023-05-07T14:10:21.786Z,17.80
2023-05-07T14:12:48.744Z,17.70
2023-05-07T14:15:17.066Z,17.50
2023-05-07T14:17:44.735Z,17.50
2023-05-07T14:20:13.305Z,17.30
2023-05-07T14:22:40.407Z,17.30
2023-05-07T14:25:07.854Z,17.00
2023-05-07T14:27:34.652Z,16.90
2023-05-07T14:30:01.585Z,16.60
2023-05-07T14:32:28.439Z,16.70
2023-05-07T14:34:55.361Z,16.50
2023-05-07T14:37:22.133Z,16.60
2023-05-07T14:39:50.798Z,16.50
2023-05-07T14:42:18.187Z,16.40
2023-05-07T14:44:46.602Z,16.50
2023-05-07T14:47:14.062Z,16.50
2023-05-07T14:49:41.700Z,16.60
2023-05-07T14:52:10.815Z,16.60
2023-05-07T14:54:39.104Z,16.50
2023-05-07T14:57:07.040Z,16.60
2023-05-07T14:59:34.049Z,16.40
2023-05-07T15:02:01.897Z,16.40
2023-05-07T15:04:29.842Z,16.30
2023-05-07T15:06:57.021Z,16.30
2023-05-07T15:09:23.710Z,16.30
2023-05-07T15:11:50.609Z,16.40
2023-05-07T15:14:17.716Z,16.30
2023-05-07T15:16:44.707Z,16.20
2023-05-07T15:19:12.173Z,16.30
2023-05-07T15:21:38.961Z,16.30
2023-05-07T15:24:06.311Z,16.30
2023-05-07T15:26:33.032Z,16.10
2023-05-07T15:28:59.735Z,15.80
2023-05-07T15:31:26.676Z,15.70
2023-05-07T15:33:53.459Z,15.50
2023-05-07T15:36:21.431Z,15.60
2023-05-07T15:38:48.217Z,15.60
2023-05-07T15:41:15.125Z,15.60
2023-05-07T15:43:47.888Z,15.50
2023-05-07T15:46:19.336Z,15.60
2023-05-07T15:48:46.265Z,15.80
2023-05-07T15:51:13.536Z,16.00
2023-05-07T15:53:41.086Z,16.00
2023-05-07T15:56:07.861Z,16.20
2023-05-07T15:58:35.747Z,16.20
2023-05-07T16:01:02.918Z,16.30
2023-05-07T16:03:30.210Z,16.40
2023-05-07T16:06:03.113Z,16.50
2023-05-07T16:08:29.861Z,16.60
2023-05-07T16:10:56.728Z,16.60
2023-05-07T16:13:24.900Z,16.60
2023-05-07T16:15:58.375Z,16.70
2023-05-07T16:18:25.148Z,16.60
2023-05-07T16:20:52.166Z,16.70
2023-05-07T16:23:19.287Z,16.40
2023-05-07T16:25:46.082Z,16.40
2023-05-07T16:28:14.565Z,16.40
2023-05-07T16:30:41.270Z,16.40
2023-05-07T16:33:08.306Z,16.40
2023-05-07T16:35:35.217Z,16.60
2023-05-07T16:38:02.021Z,16.80
2023-05-07T16:40:28.720Z,16.80
2023-05-07T16:42:55.728Z,17.00
2023-05-07T16:45:23.132Z,17.20
2023-05-07T16:47:50.085Z,17.30
2023-05-07T16:50:16.919Z,17.40
2023-05-07T16:52:43.623Z,17.60
2023-05-07T16:55:10.919Z,17.60
2023-05-07T16:57:38.167Z,17.60
2023-05-07T17:00:07.291Z,17.50
2023-05-07T17:02:35.629Z,17.50
2023-05-07T17:05:02.523Z,17.50
2023-05-07T17:07:29.320Z,17.50
2023-05-07T17:09:56.047Z,17.60
2023-05-07T17:12:22.979Z,17.30
2023-05-07T17:14:49.755Z,17.20
2023-05-07T17:17:16.478Z,17.30
2023-05-07T17:19:43.973Z,17.20
2023-05-07T17:22:10.663Z,17.20
2023-05-07T17:24:37.351Z,17.20
2023-05-07T17:27:04.153Z,17.30
2023-05-07T17:29:30.949Z,17.30
2023-05-07T17:31:57.743Z,17.30
2023-05-07T17:34:24.492Z,17.30
2023-05-07T17:36:51.293Z,17.20
2023-05-07T17:39:17.983Z,17.30
2023-05-07T17:41:44.617Z,17.10
2023-05-07T17:44:11.311Z,17.10
2023-05-07T17:46:37.962Z,17.20
2023-05-07T17:49:04.748Z,17.20
2023-05-07T17:51:39.027Z,17.20
2023-05-07T17:54:12.837Z,17.10
2023-05-07T17:56:40.588Z,17.10
2023-05-07T17:59:07.360Z,17.00
2023-05-07T18:01:34.433Z,17.00
2023-05-07T18:04:02.085Z,16.90
2023-05-07T18:06:29.017Z,16.90
2023-05-07T18:08:56.708Z,16.90
2023-05-07T18:11:24.354Z,16.80
2023-05-07T18:13:50.978Z,16.80
2023-05-07T18:16:19.260Z,16.70
2023-05-07T18:18:46.901Z,16.70
2023-05-07T18:21:18.786Z,16.60
2023-05-07T18:23:46.529Z,16.60
2023-05-07T18:26:14.068Z,16.50
2023-05-07T18:28:40.974Z,16.50
2023-05-07T18:31:07.690Z,16.60
2023-05-07T18:33:34.452Z,16.60
2023-05-07T18:36:01.113Z,16.50
2023-05-07T18:38:27.970Z,16.60
2023-05-07T18:41:05.150Z,16.60
2023-05-07T18:43:33.478Z,16.60
2023-05-07T18:46:00.299Z,16.50
2023-05-07T18:48:27.016Z,16.50
2023-05-07T18:50:53.748Z,16.40
2023-05-07T18:53:20.592Z,16.40
2023-05-07T18:55:53.411Z,16.40
2023-05-07T18:58:20.491Z,16.40
2023-05-07T19:00:51.197Z,16.40
2023-05-07T19:03:18.032Z,16.40
2023-05-07T19:05:45.669Z,16.40
2023-05-07T19:08:12.742Z,16.40
2023-05-07T19:10:39.451Z,16.30
2023-05-07T19:13:06.567Z,16.20
2023-05-07T19:15:33.649Z,16.20
2023-05-07T19:18:00.523Z,16.20
2023-05-07T19:20:27.369Z,16.10
2023-05-07T19:22:54.174Z,16.10
2023-05-07T19:25:20.898Z,16.10
2023-05-07T19:27:48.100Z,16.10
2023-05-07T19:30:15.381Z,16.00
2023-05-07T19:32:42.166Z,16.10
2023-05-07T19:35:09.601Z,16.00
2023-05-07T19:37:36.341Z,15.70
2023-05-07T19:40:05.202Z,15.60
2023-05-07T19:42:32.229Z,15.60
2023-05-07T19:44:58.972Z,15.70
2023-05-07T19:47:26.359Z,15.80
2023-05-07T19:49:53.146Z,15.80
2023-05-07T19:52:19.860Z,15.80
2023-05-07T19:54:46.605Z,15.90
2023-05-07T19:57:14.205Z,15.90
2023-05-07T19:59:41.044Z,15.90
2023-05-07T20:02:07.874Z,15.90
2023-05-07T20:04:37.989Z,15.90
2023-05-07T20:07:05.347Z,15.80
2023-05-07T20:09:32.257Z,15.80
2023-05-07T20:11:58.915Z,15.90
2023-05-07T20:14:26.837Z,15.70
2023-05-07T20:16:53.683Z,15.80
2023-05-07T20:19:20.468Z,15.70
2023-05-07T20:21:47.195Z,15.70
2023-05-07T20:24:13.865Z,15.60
2023-05-07T20:26:41.171Z,15.60
2023-05-07T20:29:07.916Z,15.50
2023-05-07T20:31:35.339Z,15.50
2023-05-07T20:34:02.746Z,15.50
2023-05-07T20:36:29.606Z,15.50
2023-05-07T20:38:56.413Z,15.50
2023-05-07T20:41:24.996Z,15.50
2023-05-07T20:43:52.151Z,15.50
2023-05-07T20:46:22.501Z,15.50
2023-05-07T20:48:49.685Z,15.40
2023-05-07T20:51:16.476Z,15.30
2023-05-07T20:53:47.990Z,15.30
2023-05-07T20:56:15.405Z,15.30
2023-05-07T20:58:42.173Z,15.30
2023-05-07T21:01:08.899Z,15.30
2023-05-07T21:03:35.654Z,15.30
2023-05-07T21:06:03.013Z,15.30
2023-05-07T21:08:30.202Z,15.30
2023-05-07T21:10:57.186Z,15.30
2023-05-07T21:13:24.177Z,15.30
2023-05-07T21:15:51.432Z,15.30
2023-05-07T21:18:19.424Z,15.20
2023-05-07T21:20:46.084Z,15.30
2023-05-07T21:23:12.877Z,15.30
2023-05-07T21:25:41.268Z,15.30
2023-05-07T21:28:08.818Z,15.30
2023-05-07T21:30:36.672Z,15.40
2023-05-07T21:33:05.382Z,15.30
2023-05-07T21:35:33.693Z,15.20
2023-05-07T21:38:02.441Z,15.20
2023-05-07T21:40:29.615Z,15.10
2023-05-07T21:42:56.336Z,15.20
2023-05-07T21:45:22.998Z,15.20
2023-05-07T21:47:49.716Z,15.20
2023-05-07T21:50:16.858Z,15.20
2023-05-07T21:52:43.718Z,15.10
2023-05-07T21:55:10.975Z,15.10
2023-05-07T21:57:41.791Z,15.10
2023-05-07T22:00:09.215Z,15.10
2023-05-07T22:02:36.670Z,15.00
2023-05-07T22:05:03.550Z,15.00
2023-05-07T22:07:30.220Z,15.00
2023-05-07T22:09:56.995Z,14.90
2023-05-07T22:12:23.688Z,14.90
2023-05-07T22:14:50.457Z,14.90
2023-05-07T22:17:17.111Z,14.90
2023-05-07T22:19:43.786Z,14.90
2023-05-07T22:22:10.529Z,14.90
2023-05-07T22:24:37.292Z,14.70
2023-05-07T22:27:04.059Z,14.70
2023-05-07T22:29:30.824Z,14.80
2023-05-07T22:31:57.695Z,14.90
2023-05-07T22:34:24.419Z,14.80
2023-05-07T22:36:51.263Z,14.80
2023-05-07T22:39:17.996Z,14.80
2023-05-07T22:41:44.760Z,14.80
2023-05-07T22:44:11.417Z,14.80
2023-05-07T22:46:38.232Z,14.80
2023-05-07T22:49:05.238Z,14.80
2023-05-07T22:51:31.949Z,14.90
2023-05-07T22:53:58.847Z,14.90
2023-05-07T22:56:25.599Z,14.90
2023-05-07T22:58:52.250Z,14.90
2023-05-07T23:01:19.440Z,14.80
2023-05-07T23:03:46.197Z,14.80
2023-05-07T23:06:13.476Z,14.90
2023-05-07T23:08:40.192Z,14.90
2023-05-07T23:11:07.466Z,14.80
2023-05-07T23:13:34.206Z,14.90
2023-05-07T23:16:00.946Z,14.90
2023-05-07T23:18:28.036Z,14.90
2023-05-07T23:20:54.962Z,14.90
2023-05-07T23:23:22.003Z,15.00
2023-05-07T23:25:51.810Z,14.90
2023-05-07T23:28:18.641Z,14.90
2023-05-07T23:30:45.757Z,14.90
2023-05-07T23:33:12.540Z,14.90
2023-05-07T23:35:39.585Z,14.90
2023-05-07T23:38:06.328Z,14.90
2023-05-07T23:40:33.061Z,14.90
2023-05-07T23:42:59.794Z,14.90
2023-05-07T23:45:26.483Z,14.80
2023-05-07T23:47:53.344Z,14.80
2023-05-07T23:50:20.216Z,14.90
2023-05-07T23:52:46.960Z,14.80
2023-05-07T23:55:16.357Z,14.80
2023-05-07T23:57:43.053Z,14.90
